Time;durP1;ratioP1;P1;durP2;ratioP2;P2;SDS_P1;SDS_P2;PMS_P1;PMS_P2;Temp;Humidity;BMP_temperature;BMP_pressure;BME280_temperature;BME280_humidity;BME280_pressure;Samples;Min_cycle;Max_cycle;Signal;HPM_P1;HPM_P2
2022/09/06 00:00:55;;;;;;;7.03;3.45;;;;;;;17.19;60.93;96134.69;5043542;28;20067;-85
2022/09/06 00:03:20;;;;;;;4.22;2.90;;;;;;;17.17;60.58;96134.03;5027612;28;20025;-84
2022/09/06 00:05:46;;;;;;;5.00;3.22;;;;;;;17.11;61.23;96130.28;5043431;28;20106;-84
2022/09/06 00:08:12;;;;;;;7.63;3.13;;;;;;;17.15;61.24;96130.72;5044384;28;20048;-83
2022/09/06 00:10:38;;;;;;;4.85;2.90;;;;;;;17.20;60.71;96138.25;5044493;28;20025;-83
2022/09/06 00:13:04;;;;;;;6.63;3.33;;;;;;;17.15;60.69;96134.25;5044076;28;20482;-83
2022/09/06 00:15:30;;;;;;;11.18;3.25;;;;;;;17.12;60.75;96139.25;5011882;28;20021;-84
2022/09/06 00:18:00;;;;;;;8.40;3.88;;;;;;;17.05;60.77;96136.47;5042865;28;20110;-82
2022/09/06 00:20:29;;;;;;;6.03;3.47;;;;;;;17.04;61.05;96137.50;5044165;28;20576;-83
2022/09/06 00:23:02;;;;;;;7.50;3.20;;;;;;;16.88;60.97;96133.28;5043725;28;20166;-84
2022/09/06 00:25:28;;;;;;;7.07;3.25;;;;;;;16.79;60.91;96129.88;5043280;28;20025;-83
2022/09/06 00:27:57;;;;;;;5.45;3.58;;;;;;;16.63;61.42;96128.31;5027695;28;20024;-83
2022/09/06 00:30:23;;;;;;;7.40;3.33;;;;;;;16.74;61.14;96126.91;5026262;28;20025;-83
2022/09/06 00:32:49;;;;;;;7.28;3.47;;;;;;;16.81;61.01;96127.81;5027804;28;20108;-85
2022/09/06 00:35:14;;;;;;;5.03;3.67;;;;;;;16.82;61.11;96129.47;5042615;28;20025;-84
2022/09/06 00:37:40;;;;;;;5.85;3.60;;;;;;;16.78;61.40;96117.38;5044160;28;20041;-83
2022/09/06 00:40:06;;;;;;;5.85;3.40;;;;;;;16.81;60.47;96127.81;5026705;28;20021;-84
2022/09/06 00:42:32;;;;;;;4.07;2.97;;;;;;;16.74;60.37;96119.63;5044582;28;20032;-84
2022/09/06 00:44:57;;;;;;;7.25;3.38;;;;;;;16.71;60.58;96132.72;5027933;28;20048;-83
2022/09/06 00:47:22;;;;;;;5.95;3.47;;;;;;;16.67;60.72;96135.84;5045103;28;20032;-84
2022/09/06 00:49:49;;;;;;;8.02;3.50;;;;;;;16.63;61.05;96131.88;5044055;28;20025;-82
2022/09/06 00:52:16;;;;;;;6.43;3.60;;;;;;;16.56;61.43;96125.56;5025917;28;20029;-83
2022/09/06 00:54:41;;;;;;;6.93;3.40;;;;;;;16.49;61.60;96128.22;5011187;28;20067;-83
2022/09/06 00:57:07;;;;;;;4.70;3.38;;;;;;;16.49;61.34;96130.09;5026204;28;20029;-84
2022/09/06 00:59:34;;;;;;;6.47;3.50;;;;;;;16.49;61.65;96127.38;5027006;28;20474;-83
2022/09/06 01:01:59;;;;;;;8.25;3.75;;;;;;;16.45;61.38;96129.66;5043576;28;20048;-83
2022/09/06 01:04:25;;;;;;;5.15;3.60;;;;;;;16.42;61.64;96132.75;5025812;28;20362;-84
2022/09/06 01:07:15;;;;;;;6.30;3.53;;;;;;;16.43;61.40;96132.56;5010727;28;20033;-84
2022/09/06 01:10:05;;;;;;;7.30;3.70;;;;;;;16.40;61.85;96134.81;5043746;28;20055;-83
2022/09/06 01:12:43;;;;;;;5.80;3.47;;;;;;;16.39;62.25;96134.00;5043055;28;20041;-83
2022/09/06 01:15:14;;;;;;;5.90;3.58;;;;;;;16.39;62.07;96131.28;5043730;28;20029;-82
2022/09/06 01:17:46;;;;;;;6.03;3.90;;;;;;;16.38;62.06;96129.59;5047311;28;20028;-83
2022/09/06 01:20:45;;;;;;;6.15;3.80;;;;;;;16.37;62.26;96133.34;5048946;28;20482;-85
2022/09/06 01:23:35;;;;;;;5.38;3.67;;;;;;;16.38;62.69;96129.59;5048064;28;20507;-83
2022/09/06 01:26:23;;;;;;;5.30;3.33;;;;;;;16.37;62.52;96125.22;5048345;28;20083;-83
2022/09/06 01:28:49;;;;;;;7.85;3.63;;;;;;;16.36;60.97;96125.44;5032571;28;20032;-84
2022/09/06 01:31:24;;;;;;;7.55;3.60;;;;;;;16.32;61.29;96122.25;5046073;28;20021;-84
2022/09/06 01:33:49;;;;;;;10.07;3.80;;;;;;;16.28;61.04;96121.81;5048715;28;20132;-84
2022/09/06 01:36:17;;;;;;;6.72;3.80;;;;;;;16.27;61.27;96122.84;5047665;28;20052;-84
2022/09/06 01:38:43;;;;;;;4.82;3.17;;;;;;;16.24;61.15;96120.53;5046901;28;20100;-83
2022/09/06 01:41:09;;;;;;;6.78;4.00;;;;;;;16.25;61.72;96122.22;5048550;28;20024;-83
2022/09/06 01:43:36;;;;;;;5.85;3.72;;;;;;;16.22;61.48;96119.91;5047475;28;20525;-83
2022/09/06 01:46:23;;;;;;;9.10;4.05;;;;;;;16.24;61.15;96114.28;5048854;28;20543;-83
2022/09/06 01:48:57;;;;;;;7.25;3.60;;;;;;;16.25;61.10;96108.66;5047450;28;20512;-83
2022/09/06 01:52:00;;;;;;;9.45;4.03;;;;;;;16.23;61.15;96110.75;5048658;28;20571;-83
2022/09/06 01:54:30;;;;;;;7.90;3.45;;;;;;;16.25;61.20;96110.56;5048637;28;20514;-84
2022/09/06 01:57:02;;;;;;;5.32;3.47;;;;;;;16.15;61.93;96102.78;5029572;28;20036;-84
2022/09/06 02:00:00;;;;;;;5.28;3.10;;;;;;;16.11;61.15;96107.75;5047452;28;20025;-84
2022/09/06 02:02:34;;;;;;;6.10;3.63;;;;;;;16.04;60.87;96106.88;5021622;28;20061;-83
2022/09/06 02:05:28;;;;;;;5.88;3.30;;;;;;;15.93;61.29;96109.00;5029498;28;20377;-84
2022/09/06 02:07:57;;;;;;;8.77;3.45;;;;;;;15.91;61.96;96099.44;5046333;28;20535;-83
2022/09/06 02:10:35;;;;;;;6.47;3.75;;;;;;;15.86;62.50;96100.03;5029205;28;20399;-84
2022/09/06 02:13:00;;;;;;;5.00;3.78;;;;;;;15.92;61.71;96107.34;5031369;28;20531;-84
2022/09/06 02:15:28;;;;;;;4.72;3.38;;;;;;;15.89;61.44;96096.94;5046463;28;20037;-84
2022/09/06 02:17:59;;;;;;;9.68;3.40;;;;;;;15.89;61.29;96099.63;5029472;28;20064;-83
2022/09/06 02:20:28;;;;;;;5.55;3.58;;;;;;;15.93;61.66;96100.06;5030013;28;20021;-84
2022/09/06 02:22:55;;;;;;;5.80;3.63;;;;;;;15.93;61.57;96100.06;5029686;28;20033;-83
2022/09/06 02:25:23;;;;;;;4.07;3.20;;;;;;;15.90;61.15;96106.69;5030613;28;20033;-84
2022/09/06 02:27:49;;;;;;;4.90;3.30;;;;;;;15.89;61.39;96105.03;5027948;28;20036;-83
2022/09/06 02:30:14;;;;;;;4.97;3.35;;;;;;;15.90;60.78;96106.69;5047233;28;20028;-83
2022/09/06 02:32:45;;;;;;;5.93;3.22;;;;;;;15.88;60.50;96108.75;5045286;28;20029;-83
2022/09/06 02:35:12;;;;;;;6.75;3.30;;;;;;;15.79;60.98;96110.78;5030656;28;20476;-83
2022/09/06 02:37:38;;;;;;;5.28;3.58;;;;;;;15.78;60.72;96108.25;5029473;28;20056;-83
2022/09/06 02:40:04;;;;;;;4.38;3.20;;;;;;;15.78;60.47;96113.66;5045601;28;20025;-84
2022/09/06 02:42:30;;;;;;;5.15;3.47;;;;;;;15.69;60.97;96105.69;5048026;28;20487;-83
2022/09/06 02:44:55;;;;;;;4.40;3.05;;;;;;;15.59;60.93;96118.66;5044913;28;20032;-85
2022/09/06 02:47:20;;;;;;;5.68;3.22;;;;;;;15.55;60.98;96106.56;5047831;28;20025;-84
2022/09/06 02:49:46;;;;;;;4.88;3.20;;;;;;;15.53;61.07;96114.03;5044954;28;20044;-84
2022/09/06 02:52:11;;;;;;;6.15;3.55;;;;;;;15.50;60.91;96114.41;5047440;28;20037;-82
2022/09/06 02:54:37;;;;;;;6.85;3.72;;;;;;;15.47;60.84;96112.09;5046411;28;20358;-84
2022/09/06 02:57:02;;;;;;;5.43;3.22;;;;;;;15.45;61.28;96107.72;5045648;28;20025;-84
2022/09/06 02:59:28;;;;;;;4.22;3.17;;;;;;;15.38;61.37;96106.81;5045768;28;20040;-84
2022/09/06 03:01:53;;;;;;;11.05;3.95;;;;;;;15.36;61.95;96108.88;5044815;28;20476;-84
2022/09/06 03:04:19;;;;;;;7.68;3.70;;;;;;;15.39;61.68;96108.50;5047346;28;20604;-84
2022/09/06 03:06:44;;;;;;;7.93;3.70;;;;;;;15.40;62.31;96106.59;5028872;28;20423;-83
2022/09/06 03:09:09;;;;;;;6.50;3.90;;;;;;;15.42;62.21;96102.72;5047360;28;20036;-84
2022/09/06 03:11:36;;;;;;;6.90;4.07;;;;;;;15.43;62.16;96117.88;5046275;28;20049;-83
2022/09/06 03:14:01;;;;;;;6.15;3.60;;;;;;;15.44;62.01;96108.72;5045756;28;20028;-83
2022/09/06 03:16:26;;;;;;;4.97;3.53;;;;;;;15.44;61.91;96107.91;5028717;28;20021;-83
2022/09/06 03:18:52;;;;;;;5.53;3.88;;;;;;;15.35;62.19;96115.28;5046363;28;20021;-83
2022/09/06 03:21:17;;;;;;;6.97;4.03;;;;;;;15.39;62.27;96113.06;5046621;28;20017;-84
2022/09/06 03:23:44;;;;;;;6.68;3.95;;;;;;;15.39;61.96;96116.59;5045247;28;20033;-84
2022/09/06 03:26:10;;;;;;;5.85;3.65;;;;;;;15.35;62.23;96120.69;5047795;28;20029;-84
2022/09/06 03:28:35;;;;;;;7.43;3.70;;;;;;;15.38;62.16;96120.31;5028434;28;20052;-84
2022/09/06 03:31:00;;;;;;;8.27;3.92;;;;;;;15.39;62.15;96116.59;5046038;28;20033;-84
2022/09/06 03:33:26;;;;;;;7.05;3.45;;;;;;;15.31;62.23;96120.22;5046979;28;20483;-83
2022/09/06 03:35:53;;;;;;;6.05;3.70;;;;;;;15.34;62.16;96121.72;5047019;28;20027;-83
2022/09/06 03:38:19;;;;;;;6.60;3.83;;;;;;;15.24;62.06;96127.44;5044957;28;20044;-84
2022/09/06 03:40:46;;;;;;;6.18;3.97;;;;;;;15.27;62.35;96131.63;5045647;28;20029;-83
2022/09/06 03:43:11;;;;;;;9.52;4.70;;;;;;;15.29;62.25;96121.47;5047578;28;20447;-83
2022/09/06 03:45:36;;;;;;;5.50;4.15;;;;;;;15.29;62.35;96126.88;5046658;28;20028;-84
2022/09/06 03:48:02;;;;;;;7.95;4.07;;;;;;;15.28;62.28;96130.59;5045355;28;20025;-84
2022/09/06 03:50:27;;;;;;;6.82;4.22;;;;;;;15.23;62.17;96125.78;5011911;28;20094;-83
2022/09/06 03:52:53;;;;;;;7.75;4.60;;;;;;;15.23;62.24;96133.03;5045605;28;20468;-84
2022/09/06 03:55:18;;;;;;;6.80;4.20;;;;;;;15.24;62.18;96134.69;5047979;28;20029;-84
2022/09/06 03:57:44;;;;;;;5.25;3.97;;;;;;;15.19;62.28;96121.75;5046489;28;20048;-84
2022/09/06 04:00:11;;;;;;;7.57;4.32;;;;;;;15.16;62.51;96136.50;5046703;28;20017;-83
2022/09/06 04:02:37;;;;;;;6.10;4.40;;;;;;;15.13;62.84;96144.97;5028052;28;20427;-84
2022/09/06 04:05:03;;;;;;;6.32;4.05;;;;;;;15.12;62.60;96135.19;5046302;28;20495;-83
2022/09/06 04:07:28;;;;;;;6.78;4.47;;;;;;;15.08;62.80;96133.88;5044040;28;20028;-84
2022/09/06 04:09:54;;;;;;;6.10;3.70;;;;;;;14.98;63.22;96136.06;5045089;28;20025;-83
2022/09/06 04:12:19;;;;;;;6.68;3.90;;;;;;;15.05;63.36;96139.66;5043192;28;20076;-83
2022/09/06 04:14:45;;;;;;;9.55;4.38;;;;;;;15.03;63.30;96137.16;5045723;28;20033;-84
2022/09/06 04:17:11;;;;;;;5.97;4.45;;;;;;;15.07;63.63;96140.31;5027180;28;20029;-84
2022/09/06 04:19:36;;;;;;;11.85;4.53;;;;;;;15.05;63.26;96142.38;5043665;28;20040;-83
2022/09/06 04:22:02;;;;;;;7.90;3.90;;;;;;;15.12;62.97;96137.88;5043664;28;20021;-83
2022/09/06 04:24:27;;;;;;;6.72;3.80;;;;;;;15.14;62.94;96135.84;5043571;28;20037;-84
2022/09/06 04:26:53;;;;;;;7.88;4.20;;;;;;;15.23;62.67;96133.03;5027638;28;20028;-84
2022/09/06 04:29:18;;;;;;;5.45;3.92;;;;;;;15.25;62.47;96137.22;5026758;28;20035;-84
2022/09/06 04:31:44;;;;;;;6.30;4.00;;;;;;;15.32;62.22;96138.13;5027439;28;20017;-84
2022/09/06 04:34:09;;;;;;;8.70;4.22;;;;;;;15.43;62.25;96128.69;5044830;28;20021;-84
2022/09/06 04:36:35;;;;;;;11.77;4.40;;;;;;;15.55;61.73;96131.75;5045397;28;20033;-83
2022/09/06 04:39:00;;;;;;;8.18;4.68;;;;;;;15.63;61.29;96138.91;5044157;28;20029;-84
2022/09/06 04:41:25;;;;;;;10.95;4.55;;;;;;;15.64;61.55;96132.44;5043391;28;20534;-84
2022/09/06 04:43:51;;;;;;;7.85;4.25;;;;;;;15.73;61.23;96137.75;5010716;28;20488;-84
2022/09/06 04:46:21;;;;;;;9.80;4.40;;;;;;;15.77;60.89;96131.75;5042932;28;20466;-83
2022/09/06 04:48:47;;;;;;;6.95;4.22;;;;;;;15.86;60.71;96134.34;5044152;28;20029;-84
2022/09/06 04:51:12;;;;;;;8.38;4.95;;;;;;;15.92;60.65;96137.09;5044166;28;20488;-84
2022/09/06 04:53:38;;;;;;;5.82;3.80;;;;;;;16.05;60.60;96141.00;5048215;28;20044;-84
2022/09/06 04:56:04;;;;;;;9.80;4.30;;;;;;;16.15;60.29;96138.78;5049115;28;20285;-83
2022/09/06 04:58:29;;;;;;;7.20;4.03;;;;;;;16.27;59.83;96127.41;5048790;28;20036;-83
2022/09/06 05:00:55;;;;;;;8.90;4.53;;;;;;;16.38;59.64;96128.78;5048977;28;20334;-84
2022/09/06 05:03:20;;;;;;;5.90;4.20;;;;;;;16.47;59.55;96124.03;5047495;28;20017;-84
2022/09/06 05:05:46;;;;;;;7.80;4.00;;;;;;;16.60;59.28;96131.41;5049084;28;20032;-84
2022/09/06 05:08:11;;;;;;;8.20;3.90;;;;;;;16.67;59.16;96130.41;5048926;28;20033;-83
2022/09/06 05:10:37;;;;;;;6.72;3.85;;;;;;;16.76;59.89;96138.41;5049045;28;20496;-83
2022/09/06 05:13:02;;;;;;;7.25;4.32;;;;;;;16.86;59.99;96127.22;5048381;28;20052;-83
2022/09/06 05:15:28;;;;;;;5.35;4.07;;;;;;;16.99;60.05;96126.44;5048898;28;20032;-84
2022/09/06 05:18:02;;;;;;;6.85;4.03;;;;;;;17.00;60.15;96133.53;5047592;28;20028;-83
2022/09/06 05:20:27;;;;;;;8.82;4.22;;;;;;;17.11;60.06;96138.41;5048531;28;20449;-83
2022/09/06 05:22:53;;;;;;;7.45;4.93;;;;;;;17.10;59.51;96125.91;5047604;28;20021;-84
2022/09/06 05:25:18;;;;;;;6.82;4.40;;;;;;;17.26;59.14;96129.28;5030195;28;20025;-84
2022/09/06 05:27:44;;;;;;;9.27;4.47;;;;;;;17.33;58.45;96130.16;5047131;28;20048;-83
2022/09/06 05:30:10;;;;;;;5.40;4.03;;;;;;;17.45;59.22;96121.44;5048104;28;20037;-84
2022/09/06 05:32:35;;;;;;;7.45;4.43;;;;;;;17.54;58.89;96131.03;5046827;28;20507;-83
2022/09/06 05:35:00;;;;;;;8.73;4.82;;;;;;;17.65;58.31;96129.63;5030413;28;20032;-85
2022/09/06 05:37:26;;;;;;;7.68;4.03;;;;;;;17.76;58.58;96129.03;5046543;28;20475;-84
2022/09/06 05:39:51;;;;;;;6.82;4.00;;;;;;;17.86;58.23;96127.81;5046686;28;20549;-84
2022/09/06 05:42:17;;;;;;;6.47;4.50;;;;;;;17.91;58.04;96131.56;5046499;28;20511;-83
2022/09/06 05:44:42;;;;;;;12.88;7.40;;;;;;;18.01;57.85;96130.31;5030194;28;20033;-83
2022/09/06 05:47:08;;;;;;;13.82;7.18;;;;;;;18.09;57.09;96126.59;5029579;28;20484;-83
2022/09/06 05:49:33;;;;;;;24.60;7.03;;;;;;;18.14;57.60;96130.34;5046976;28;20495;-84
2022/09/06 05:51:59;;;;;;;17.83;5.75;;;;;;;18.14;58.34;96127.66;5045973;28;20090;-83
2022/09/06 05:54:24;;;;;;;8.85;5.15;;;;;;;18.33;58.22;96124.31;5048181;28;20029;-84
2022/09/06 05:56:50;;;;;;;9.93;4.95;;;;;;;18.44;56.85;96120.13;5047584;28;20029;-84
2022/09/06 05:59:15;;;;;;;13.20;5.05;;;;;;;18.41;56.78;96111.34;5029649;28;20020;-83
2022/09/06 06:01:48;;;;;;;14.15;5.05;;;;;;;18.39;57.05;96110.72;5046014;28;20025;-83
2022/09/06 06:04:13;;;;;;;;;;;;;;;18.49;56.37;96109.47;5030046;28;20419;-84
2022/09/06 06:06:38;;;;;;;9.85;5.38;;;;;;;18.55;56.45;96105.91;5046766;28;19913;-83
2022/09/06 06:09:04;;;;;;;16.52;6.10;;;;;;;18.64;56.30;96107.34;5047095;28;20029;-83
2022/09/06 06:11:30;;;;;;;17.75;6.13;;;;;;;18.70;56.70;96110.28;5046222;28;20029;-84
2022/09/06 06:13:57;;;;;;;12.05;5.70;;;;;;;18.75;56.17;96105.84;5045940;28;20028;-84
2022/09/06 06:16:24;;;;;;;16.80;6.53;;;;;;;18.76;56.22;96106.69;5046352;28;20021;-82
2022/09/06 06:18:49;;;;;;;10.43;5.72;;;;;;;18.88;56.35;96101.44;5012932;28;20415;-83
2022/09/06 06:21:20;;;;;;;14.57;6.53;;;;;;;18.96;56.17;96100.38;5045734;28;20479;-82
2022/09/06 06:23:46;;;;;;;14.93;6.93;;;;;;;19.00;56.00;96101.63;5047230;28;20033;-85
2022/09/06 06:26:12;;;;;;;11.45;6.03;;;;;;;19.12;55.57;96105.34;5046620;28;20471;-84
2022/09/06 06:28:38;;;;;;;13.32;5.85;;;;;;;19.11;54.42;96095.53;5029390;28;20052;-84
2022/09/06 06:31:04;;;;;;;15.10;6.47;;;;;;;19.23;54.89;96103.03;5045648;28;20464;-84
2022/09/06 06:33:29;;;;;;;11.05;5.95;;;;;;;19.21;54.71;96105.97;5047182;28;20552;-83
2022/09/06 06:35:57;;;;;;;12.93;5.85;;;;;;;19.35;54.82;96109.44;5047015;28;20496;-83
2022/09/06 06:38:22;;;;;;;15.52;6.18;;;;;;;19.50;55.36;96097.47;5046974;28;20029;-85
2022/09/06 06:40:47;;;;;;;12.85;5.85;;;;;;;19.52;54.59;96098.91;5028813;28;20029;-83
2022/09/06 06:43:13;;;;;;;12.25;5.78;;;;;;;19.55;54.13;96105.81;5028706;28;20215;-83
2022/09/06 06:45:38;;;;;;;13.73;6.22;;;;;;;19.55;54.53;96099.53;5047655;28;20104;-84
2022/09/06 06:48:04;;;;;;;16.35;6.05;;;;;;;19.55;54.36;96099.53;5044957;28;20029;-84
2022/09/06 06:50:29;;;;;;;16.60;6.30;;;;;;;19.67;55.00;96096.97;5046112;28;20067;-84
2022/09/06 06:52:55;;;;;;;21.88;6.57;;;;;;;19.79;54.63;96094.34;5046246;28;20029;-84
2022/09/06 06:55:20;;;;;;;18.00;6.30;;;;;;;19.96;53.92;96097.38;5047101;28;20092;-84
2022/09/06 06:57:45;;;;;;;13.75;5.68;;;;;;;19.91;53.95;96094.50;5045025;28;20520;-83
2022/09/06 07:00:11;;;;;;;9.98;5.38;;;;;;;19.91;53.85;96091.78;5028583;28;20079;-83
2022/09/06 07:02:37;;;;;;;11.80;6.10;;;;;;;19.82;53.67;96094.75;5046672;28;20051;-83
2022/09/06 07:05:02;;;;;;;14.70;5.95;;;;;;;19.77;54.28;96102.72;5051081;28;20036;-84
2022/09/06 07:07:28;;;;;;;13.18;6.22;;;;;;;19.80;53.69;96099.56;5047125;28;20389;-82
2022/09/06 07:09:53;;;;;;;8.57;5.65;;;;;;;19.56;54.19;96103.91;5027824;28;20044;-83
2022/09/06 07:12:19;;;;;;;8.55;6.57;;;;;;;19.48;55.76;96099.56;5046453;28;20053;-83
2022/09/06 07:14:44;;;;;;;11.13;5.90;;;;;;;19.41;54.16;96098.75;5045941;28;20036;-83
2022/09/06 07:17:10;;;;;;;9.80;6.28;;;;;;;19.38;55.92;96105.47;5046131;28;20032;-83
2022/09/06 07:19:35;;;;;;;14.50;6.70;;;;;;;19.42;55.04;96100.41;5046286;28;20021;-83
2022/09/06 07:22:01;;;;;;;7.35;5.50;;;;;;;19.36;54.83;96102.13;5044236;28;20033;-83
2022/09/06 07:24:26;;;;;;;10.27;5.85;;;;;;;19.63;53.90;96100.13;5046259;28;20106;-84
2022/09/06 07:26:51;;;;;;;10.65;5.95;;;;;;;19.82;55.02;96105.63;5044508;28;20029;-84
2022/09/06 07:29:17;;;;;;;7.57;6.15;;;;;;;20.04;54.73;96101.75;5028375;28;20616;-84
2022/09/06 07:31:42;;;;;;;9.18;5.40;;;;;;;20.15;53.32;96108.38;5045887;28;20091;-83
2022/09/06 07:34:08;;;;;;;8.77;5.78;;;;;;;20.25;52.89;96103.25;5045973;28;20025;-83
2022/09/06 07:36:34;;;;;;;8.45;6.75;;;;;;;20.37;53.14;96101.50;5044744;28;20033;-83
2022/09/06 07:38:59;;;;;;;6.80;5.70;;;;;;;20.47;52.51;96095.50;5044146;28;20098;-83
2022/09/06 07:41:25;;;;;;;8.30;5.78;;;;;;;20.31;52.64;96098.81;5045692;28;20040;-83
2022/09/06 07:43:53;;;;;;;8.23;5.53;;;;;;;20.36;52.38;96101.72;5045824;28;20529;-83
2022/09/06 07:46:19;;;;;;;11.65;6.35;;;;;;;20.60;52.50;96099.19;5044456;28;20025;-84
2022/09/06 07:48:45;;;;;;;11.82;6.40;;;;;;;20.55;53.09;96099.88;5044036;28;20099;-83
2022/09/06 07:51:16;;;;;;;13.38;6.40;;;;;;;20.48;52.97;96099.06;5028234;28;20037;-84
2022/09/06 07:53:42;;;;;;;11.63;6.35;;;;;;;20.66;53.03;96101.00;5045371;28;20029;-83
2022/09/06 07:56:08;;;;;;;9.07;5.90;;;;;;;20.78;51.56;96094.81;5011242;28;20326;-83
2022/09/06 07:58:34;;;;;;;11.07;6.07;;;;;;;20.69;51.00;96097.00;5044278;28;20043;-82
2022/09/06 08:01:19;;;;;;;7.80;5.45;;;;;;;20.82;51.09;96099.59;5043891;28;20459;-83
2022/09/06 08:03:45;;;;;;;12.00;6.32;;;;;;;20.78;50.53;96092.91;5044097;28;20067;-83
2022/09/06 08:06:10;;;;;;;7.68;5.82;;;;;;;20.94;50.55;96094.22;5044714;28;20047;-83
2022/09/06 08:08:35;;;;;;;8.13;5.68;;;;;;;21.03;51.02;96086.59;5044121;28;20479;-82
2022/09/06 08:11:01;;;;;;;10.23;5.75;;;;;;;21.38;50.66;96092.47;5043752;28;20029;-82
2022/09/06 08:13:27;;;;;;;8.50;5.85;;;;;;;21.44;48.71;96091.56;5043923;28;20511;-82
2022/09/06 08:15:59;;;;;;;15.20;5.93;;;;;;;21.30;49.63;96082.69;5027998;28;20082;-83
2022/09/06 08:18:25;;;;;;;6.93;5.68;;;;;;;20.82;51.25;96091.41;5045306;28;20073;-82
2022/09/06 08:20:50;;;;;;;8.38;6.18;;;;;;;20.79;51.27;96083.69;5027150;28;20280;-83
2022/09/06 08:23:16;;;;;;;8.65;5.93;;;;;;;20.87;51.26;96088.84;5044280;28;20086;-83
2022/09/06 08:25:41;;;;;;;12.75;6.28;;;;;;;21.19;51.16;96082.41;5043011;28;20032;-83
2022/09/06 08:28:07;;;;;;;12.27;5.80;;;;;;;21.29;51.08;96079.16;5043248;28;20033;-83
2022/09/06 08:30:32;;;;;;;7.75;5.57;;;;;;;21.53;49.41;96079.25;5043584;28;20033;-83
2022/09/06 08:32:58;;;;;;;11.68;6.10;;;;;;;21.64;48.61;96065.84;5043473;28;20025;-82
2022/09/06 08:35:23;;;;;;;7.47;5.50;;;;;;;21.53;49.55;96070.22;5043243;28;20480;-82
2022/09/06 08:37:49;;;;;;;6.55;5.40;;;;;;;21.50;49.42;96068.81;5044568;28;20044;-83
2022/09/06 08:40:19;;;;;;;8.27;5.47;;;;;;;21.44;49.43;96062.34;5044210;28;20033;-83
2022/09/06 08:42:44;;;;;;;9.77;5.47;;;;;;;21.52;50.32;96065.84;5010963;28;20441;-83
2022/09/06 08:45:11;;;;;;;7.20;5.78;;;;;;;21.47;50.40;96061.06;5026785;28;20239;-83
2022/09/06 08:47:36;;;;;;;6.43;5.63;;;;;;;21.49;50.26;96061.66;5027062;28;20462;-83
2022/09/06 08:50:05;;;;;;;5.90;4.82;;;;;;;21.84;48.66;96055.50;5043256;28;20500;-83
2022/09/06 08:52:37;;;;;;;5.72;4.40;;;;;;;21.94;46.10;96054.13;5044210;28;20032;-83
2022/09/06 08:55:38;;;;;;;6.00;4.35;;;;;;;21.91;46.89;96052.69;5044707;28;20126;-83
2022/09/06 08:58:41;;;;;;;9.80;5.05;;;;;;;21.86;46.93;96044.34;5043080;28;20024;-83
2022/09/06 09:01:17;;;;;;;5.10;4.43;;;;;;;21.82;46.82;96038.53;5044904;28;20037;-84
2022/09/06 09:03:42;;;;;;;5.88;4.50;;;;;;;22.03;47.56;96033.59;5027710;28;20025;-83
2022/09/06 09:06:09;;;;;;;8.15;4.00;;;;;;;22.30;45.46;96026.81;5043027;28;20033;-83
2022/09/06 09:08:51;;;;;;;6.68;4.00;;;;;;;22.29;43.97;96030.63;5026860;28;20464;-81
2022/09/06 09:11:18;;;;;;;5.10;3.80;;;;;;;22.19;45.50;96021.13;5026416;28;20037;-83
2022/09/06 09:13:46;;;;;;;6.43;4.10;;;;;;;22.34;45.58;96014.38;5026835;28;20124;-82
2022/09/06 09:16:13;;;;;;;7.38;4.30;;;;;;;22.33;46.55;96010.78;5044497;28;20040;-82
2022/09/06 09:18:40;;;;;;;9.23;4.30;;;;;;;22.29;46.09;96008.78;5026346;28;20120;-82
2022/09/06 09:21:05;;;;;;;4.80;4.20;;;;;;;22.34;46.34;96006.97;5026586;28;20037;-83
2022/09/06 09:23:31;;;;;;;4.97;3.92;;;;;;;22.40;46.11;96007.09;5044063;28;20079;-83
2022/09/06 09:26:01;;;;;;;6.22;3.97;;;;;;;22.50;45.27;95995.56;5043151;28;20079;-83
2022/09/06 09:28:26;;;;;;;6.43;4.45;;;;;;;22.61;46.12;96000.22;5042649;28;20098;-83
2022/09/06 09:30:54;;;;;;;7.25;4.25;;;;;;;22.64;46.20;95994.28;5026836;28;20025;-83
2022/09/06 09:33:23;;;;;;;8.07;4.13;;;;;;;22.67;46.71;95995.69;5042943;28;20504;-83
2022/09/06 09:35:49;;;;;;;6.40;3.88;;;;;;;22.79;44.72;95999.25;5042924;28;20029;-83
2022/09/06 09:38:44;;;;;;;4.97;3.60;;;;;;;22.87;44.30;95987.09;5045638;28;20468;-84
2022/09/06 09:41:23;;;;;;;5.18;4.22;;;;;;;22.82;43.89;95985.09;5031258;28;20098;-83
2022/09/06 09:43:57;;;;;;;5.25;4.28;;;;;;;22.84;46.12;95982.13;5032366;28;20166;-82
2022/09/06 09:46:22;;;;;;;6.32;3.88;;;;;;;22.79;44.83;95982.00;5014193;28;20432;-82
2022/09/06 09:49:23;;;;;;;8.52;4.50;;;;;;;22.82;45.63;95978.78;5046425;28;20090;-82
2022/09/06 09:52:06;;;;;;;6.22;4.25;;;;;;;22.94;45.18;95978.75;5047341;28;20395;-83
2022/09/06 09:54:34;;;;;;;6.95;4.68;;;;;;;23.23;44.93;95978.75;5046141;28;20227;-83
2022/09/06 09:57:00;;;;;;;5.88;4.40;;;;;;;23.43;43.39;95972.88;5016493;28;20443;-83
2022/09/06 09:59:38;;;;;;;8.05;4.50;;;;;;;23.60;44.51;95966.59;5047007;28;20021;-83
2022/09/06 10:02:29;;;;;;;6.78;4.25;;;;;;;23.69;43.71;95961.53;5046698;28;20495;-83
2022/09/06 10:05:15;;;;;;;5.88;4.05;;;;;;;23.75;44.73;95966.00;5042918;28;20094;-82
2022/09/06 10:07:49;;;;;;;9.30;4.53;;;;;;;23.66;44.03;95960.13;5047131;28;20427;-84
2022/09/06 10:10:25;;;;;;;5.97;4.63;;;;;;;23.58;43.18;95958.63;5031080;28;20031;-82
2022/09/06 10:13:15;;;;;;;5.50;3.90;;;;;;;23.84;42.55;95960.97;5029355;28;20045;-82
2022/09/06 10:15:42;;;;;;;6.43;4.38;;;;;;;23.89;42.52;95961.00;5047262;28;20032;-84
2022/09/06 10:18:28;;;;;;;8.50;3.88;;;;;;;23.91;41.14;95953.38;5046215;28;20036;-83
2022/09/06 10:21:22;;;;;;;5.60;4.30;;;;;;;24.02;39.97;95945.34;5046032;28;20060;-85
2022/09/06 10:24:14;;;;;;;5.47;3.80;;;;;;;23.94;38.95;95944.66;5045775;28;20035;-84
2022/09/06 10:26:52;;;;;;;6.03;4.30;;;;;;;23.87;39.28;95940.44;5046984;28;20056;-82
2022/09/06 10:29:28;;;;;;;7.97;4.15;;;;;;;23.81;39.45;95940.34;5045764;28;20035;-82
2022/09/06 10:32:03;;;;;;;5.07;4.45;;;;;;;23.44;40.44;95932.66;5030153;28;20108;-83
2022/09/06 10:35:04;;;;;;;8.98;3.90;;;;;;;23.35;40.49;95937.66;5047235;28;20021;-83
2022/09/06 10:37:35;;;;;;;4.25;3.08;;;;;;;23.63;38.23;95933.25;5045691;28;20037;-82
2022/09/06 10:40:07;;;;;;;5.65;3.35;;;;;;;23.80;39.62;95927.75;5045601;28;20021;-82
2022/09/06 10:42:55;;;;;;;4.57;2.85;;;;;;;23.64;38.78;95923.94;5031417;28;20512;-87
2022/09/06 10:45:26;;;;;;;4.10;2.92;;;;;;;23.67;40.04;95928.06;5030145;28;20415;-82
2022/09/06 10:48:03;;;;;;;3.53;2.50;;;;;;;23.92;36.92;95929.56;5046624;28;20033;-82
2022/09/06 10:50:34;;;;;;;4.75;3.03;;;;;;;23.96;37.46;95919.75;5044510;28;20036;-82
2022/09/06 10:53:06;;;;;;;4.57;3.40;;;;;;;24.16;37.98;95913.81;5046476;28;20040;-83
2022/09/06 10:55:31;;;;;;;8.43;3.73;;;;;;;24.17;37.61;95922.84;5029116;28;20021;-82
2022/09/06 10:58:03;;;;;;;3.65;2.83;;;;;;;24.20;37.55;95911.38;5045062;28;20036;-82
2022/09/06 11:00:31;;;;;;;6.00;3.22;;;;;;;24.13;38.56;95907.97;5045205;28;20021;-82
2022/09/06 11:03:02;;;;;;;20.33;5.65;;;;;;;23.81;38.15;95910.22;5028522;28;20033;-83
2022/09/06 11:05:34;;;;;;;9.60;4.33;;;;;;;24.04;38.12;95904.81;5046556;28;20055;-83
2022/09/06 11:08:00;;;;;;;15.40;4.57;;;;;;;24.13;36.13;95903.31;5028617;28;20029;-83
2022/09/06 11:10:33;;;;;;;6.93;3.65;;;;;;;24.40;38.25;95912.72;5034237;28;20025;-82
2022/09/06 11:13:29;;;;;;;4.55;3.00;;;;;;;24.47;35.37;95905.16;5029485;28;20053;-83
2022/09/06 11:16:13;;;;;;;2.85;1.92;;;;;;;24.51;33.80;95900.81;5044921;28;20037;-82
2022/09/06 11:18:52;;;;;;;8.52;2.80;;;;;;;24.55;34.38;95904.69;5046204;28;20115;-82
2022/09/06 11:21:36;;;;;;;4.25;2.83;;;;;;;24.60;33.54;95911.34;5044915;28;20458;-82
2022/09/06 11:24:34;;;;;;;6.82;3.08;;;;;;;24.72;33.87;95914.78;5045907;28;20029;-83
2022/09/06 11:27:23;;;;;;;3.50;2.38;;;;;;;24.59;33.40;95899.53;5044059;28;20464;-82
2022/09/06 11:29:55;;;;;;;3.40;2.60;;;;;;;24.17;34.92;95898.16;5045239;28;20460;-83
2022/09/06 11:32:28;;;;;;;4.35;2.50;;;;;;;23.98;35.13;95903.91;5044724;28;20043;-83
2022/09/06 11:34:54;;;;;;;4.40;3.05;;;;;;;24.51;35.18;95894.50;5044534;28;20493;-83
2022/09/06 11:37:31;;;;;;;4.40;2.55;;;;;;;24.77;34.40;95894.81;5028107;28;20033;-83
2022/09/06 11:40:27;;;;;;;3.13;2.40;;;;;;;24.95;34.54;95896.41;5027950;28;20032;-83
2022/09/06 11:42:53;;;;;;;4.07;2.70;;;;;;;24.84;35.85;95897.34;5042452;28;20040;-83